sensor_id;sensor_type;location;lat;lon;timestamp;temperature;humidity
71672;DHT22;62112;45.638;11.714;2022-08-21T00:02:26;27.90;52.00
71672;DHT22;62112;45.638;11.714;2022-08-21T00:04:53;27.90;52.50
71672;DHT22;62112;45.638;11.714;2022-08-21T00:07:20;27.90;52.40
71672;DHT22;62112;45.638;11.714;2022-08-21T00:09:47;27.80;52.60
71672;DHT22;62112;45.638;11.714;2022-08-21T00:12:13;27.80;52.30
71672;DHT22;62112;45.638;11.714;2022-08-21T00:14:39;27.90;52.10
71672;DHT22;62112;45.638;11.714;2022-08-21T00:17:06;27.90;52.20
71672;DHT22;62112;45.638;11.714;2022-08-21T00:19:32;27.90;52.10
71672;DHT22;62112;45.638;11.714;2022-08-21T00:21:59;27.90;52.20
71672;DHT22;62112;45.638;11.714;2022-08-21T00:24:25;27.80;52.30
71672;DHT22;62112;45.638;11.714;2022-08-21T00:26:51;27.90;52.50
71672;DHT22;62112;45.638;11.714;2022-08-21T00:29:18;27.80;52.40
71672;DHT22;62112;45.638;11.714;2022-08-21T00:31:44;27.80;52.50
71672;DHT22;62112;45.638;11.714;2022-08-21T00:34:12;27.90;52.40
71672;DHT22;62112;45.638;11.714;2022-08-21T00:36:39;27.80;52.60
71672;DHT22;62112;45.638;11.714;2022-08-21T00:39:06;27.90;52.50
71672;DHT22;62112;45.638;11.714;2022-08-21T00:41:33;27.80;52.30
71672;DHT22;62112;45.638;11.714;2022-08-21T00:43:59;27.80;52.50
71672;DHT22;62112;45.638;11.714;2022-08-21T00:46:25;27.80;52.20
71672;DHT22;62112;45.638;11.714;2022-08-21T00:48:51;27.70;52.30
71672;DHT22;62112;45.638;11.714;2022-08-21T00:51:22;27.80;52.20
71672;DHT22;62112;45.638;11.714;2022-08-21T00:53:54;27.70;52.40
71672;DHT22;62112;45.638;11.714;2022-08-21T00:56:23;27.80;52.30
71672;DHT22;62112;45.638;11.714;2022-08-21T00:58:50;27.70;52.70
71672;DHT22;62112;45.638;11.714;2022-08-21T01:01:17;27.80;52.10
71672;DHT22;62112;45.638;11.714;2022-08-21T01:03:43;27.80;52.60
71672;DHT22;62112;45.638;11.714;2022-08-21T01:06:09;27.70;52.40
71672;DHT22;62112;45.638;11.714;2022-08-21T01:08:35;27.80;52.30
71672;DHT22;62112;45.638;11.714;2022-08-21T01:11:03;27.80;52.50
71672;DHT22;62112;45.638;11.714;2022-08-21T01:13:32;27.80;52.40
71672;DHT22;62112;45.638;11.714;2022-08-21T01:16:01;27.80;52.20
71672;DHT22;62112;45.638;11.714;2022-08-21T01:18:28;27.70;52.80
71672;DHT22;62112;45.638;11.714;2022-08-21T01:23:42;27.70;52.50
71672;DHT22;62112;45.638;11.714;2022-08-21T01:26:10;27.70;52.20
71672;DHT22;62112;45.638;11.714;2022-08-21T01:28:40;27.70;52.70
71672;DHT22;62112;45.638;11.714;2022-08-21T01:31:08;27.60;52.70
71672;DHT22;62112;45.638;11.714;2022-08-21T01:33:36;27.70;52.30
71672;DHT22;62112;45.638;11.714;2022-08-21T01:36:02;27.80;52.40
71672;DHT22;62112;45.638;11.714;2022-08-21T01:38:28;27.70;52.40
71672;DHT22;62112;45.638;11.714;2022-08-21T01:40:54;27.80;52.40
71672;DHT22;62112;45.638;11.714;2022-08-21T01:43:20;27.80;52.30
71672;DHT22;62112;45.638;11.714;2022-08-21T01:45:46;27.70;52.30
71672;DHT22;62112;45.638;11.714;2022-08-21T01:48:11;27.70;52.50
71672;DHT22;62112;45.638;11.714;2022-08-21T01:50:38;27.70;52.70
71672;DHT22;62112;45.638;11.714;2022-08-21T01:53:04;27.80;52.30
71672;DHT22;62112;45.638;11.714;2022-08-21T01:55:30;27.70;52.60
71672;DHT22;62112;45.638;11.714;2022-08-21T01:57:57;27.70;52.30
71672;DHT22;62112;45.638;11.714;2022-08-21T02:00:24;27.70;52.30
71672;DHT22;62112;45.638;11.714;2022-08-21T02:02:50;27.70;52.30
71672;DHT22;62112;45.638;11.714;2022-08-21T02:05:16;27.70;52.30
71672;DHT22;62112;45.638;11.714;2022-08-21T02:07:48;27.70;52.50
71672;DHT22;62112;45.638;11.714;2022-08-21T02:10:18;27.70;52.10
71672;DHT22;62112;45.638;11.714;2022-08-21T02:12:44;27.70;52.30
71672;DHT22;62112;45.638;11.714;2022-08-21T02:15:10;27.80;52.00
71672;DHT22;62112;45.638;11.714;2022-08-21T02:17:48;27.70;52.20
71672;DHT22;62112;45.638;11.714;2022-08-21T02:20:22;27.70;52.30
71672;DHT22;62112;45.638;11.714;2022-08-21T02:22:49;27.80;52.30
71672;DHT22;62112;45.638;11.714;2022-08-21T02:25:16;27.70;52.30
71672;DHT22;62112;45.638;11.714;2022-08-21T02:27:43;27.70;52.10
71672;DHT22;62112;45.638;11.714;2022-08-21T02:30:16;27.60;52.40
71672;DHT22;62112;45.638;11.714;2022-08-21T02:32:43;27.70;52.30
71672;DHT22;62112;45.638;11.714;2022-08-21T02:35:10;27.70;52.20
71672;DHT22;62112;45.638;11.714;2022-08-21T02:37:49;27.70;52.10
71672;DHT22;62112;45.638;11.714;2022-08-21T02:40:16;27.70;52.20
71672;DHT22;62112;45.638;11.714;2022-08-21T02:42:43;27.60;52.10
71672;DHT22;62112;45.638;11.714;2022-08-21T02:45:11;27.60;52.10
71672;DHT22;62112;45.638;11.714;2022-08-21T02:47:37;27.60;52.10
71672;DHT22;62112;45.638;11.714;2022-08-21T02:50:04;27.60;52.00
71672;DHT22;62112;45.638;11.714;2022-08-21T02:52:30;27.60;52.00
71672;DHT22;62112;45.638;11.714;2022-08-21T02:54:56;27.60;52.10
71672;DHT22;62112;45.638;11.714;2022-08-21T02:57:22;27.60;52.00
71672;DHT22;62112;45.638;11.714;2022-08-21T02:59:47;27.60;51.80
71672;DHT22;62112;45.638;11.714;2022-08-21T03:02:13;27.60;52.00
71672;DHT22;62112;45.638;11.714;2022-08-21T03:04:40;27.70;52.10
71672;DHT22;62112;45.638;11.714;2022-08-21T03:07:05;27.60;51.90
71672;DHT22;62112;45.638;11.714;2022-08-21T03:09:32;27.70;51.80
71672;DHT22;62112;45.638;11.714;2022-08-21T03:11:57;27.60;51.70
71672;DHT22;62112;45.638;11.714;2022-08-21T03:14:23;27.60;52.00
71672;DHT22;62112;45.638;11.714;2022-08-21T03:16:49;27.60;52.00
71672;DHT22;62112;45.638;11.714;2022-08-21T03:19:15;27.60;52.10
71672;DHT22;62112;45.638;11.714;2022-08-21T03:21:41;27.60;51.50
71672;DHT22;62112;45.638;11.714;2022-08-21T03:24:07;27.60;51.90
71672;DHT22;62112;45.638;11.714;2022-08-21T03:26:34;27.60;51.70
71672;DHT22;62112;45.638;11.714;2022-08-21T03:29:01;27.70;51.90
71672;DHT22;62112;45.638;11.714;2022-08-21T03:31:26;27.60;51.60
71672;DHT22;62112;45.638;11.714;2022-08-21T03:33:57;27.60;51.80
71672;DHT22;62112;45.638;11.714;2022-08-21T03:36:24;27.50;51.70
71672;DHT22;62112;45.638;11.714;2022-08-21T03:38:50;27.50;51.70
71672;DHT22;62112;45.638;11.714;2022-08-21T03:41:16;27.50;51.80
71672;DHT22;62112;45.638;11.714;2022-08-21T03:43:42;27.60;51.70
71672;DHT22;62112;45.638;11.714;2022-08-21T03:46:08;27.50;51.70
71672;DHT22;62112;45.638;11.714;2022-08-21T03:48:36;27.50;51.40
71672;DHT22;62112;45.638;11.714;2022-08-21T03:51:02;27.50;51.40
71672;DHT22;62112;45.638;11.714;2022-08-21T03:53:28;27.50;51.60
71672;DHT22;62112;45.638;11.714;2022-08-21T03:55:56;27.60;51.50
71672;DHT22;62112;45.638;11.714;2022-08-21T03:58:24;27.50;51.60
71672;DHT22;62112;45.638;11.714;2022-08-21T04:00:52;27.50;51.70
71672;DHT22;62112;45.638;11.714;2022-08-21T04:03:20;27.50;51.60
71672;DHT22;62112;45.638;11.714;2022-08-21T04:05:46;27.50;51.50
71672;DHT22;62112;45.638;11.714;2022-08-21T04:08:14;27.50;51.80
71672;DHT22;62112;45.638;11.714;2022-08-21T04:10:40;27.50;51.40
71672;DHT22;62112;45.638;11.714;2022-08-21T04:13:07;27.60;51.30
71672;DHT22;62112;45.638;11.714;2022-08-21T04:15:33;27.50;51.50
71672;DHT22;62112;45.638;11.714;2022-08-21T04:17:59;27.50;51.60
71672;DHT22;62112;45.638;11.714;2022-08-21T04:20:25;27.50;51.20
71672;DHT22;62112;45.638;11.714;2022-08-21T04:22:52;27.50;51.20
71672;DHT22;62112;45.638;11.714;2022-08-21T04:25:20;27.60;51.60
71672;DHT22;62112;45.638;11.714;2022-08-21T04:27:46;27.60;51.40
71672;DHT22;62112;45.638;11.714;2022-08-21T04:30:13;27.40;51.30
71672;DHT22;62112;45.638;11.714;2022-08-21T04:32:43;27.50;51.50
71672;DHT22;62112;45.638;11.714;2022-08-21T04:35:10;27.50;51.10
71672;DHT22;62112;45.638;11.714;2022-08-21T04:37:36;27.50;51.10
71672;DHT22;62112;45.638;11.714;2022-08-21T04:40:04;27.40;51.00
71672;DHT22;62112;45.638;11.714;2022-08-21T04:42:30;27.60;51.40
71672;DHT22;62112;45.638;11.714;2022-08-21T04:44:56;27.50;51.60
71672;DHT22;62112;45.638;11.714;2022-08-21T04:47:23;27.40;51.30
71672;DHT22;62112;45.638;11.714;2022-08-21T04:49:50;27.60;51.20
71672;DHT22;62112;45.638;11.714;2022-08-21T04:52:20;27.50;51.10
71672;DHT22;62112;45.638;11.714;2022-08-21T04:54:48;27.60;50.90
71672;DHT22;62112;45.638;11.714;2022-08-21T04:57:15;27.60;51.10
71672;DHT22;62112;45.638;11.714;2022-08-21T04:59:46;27.60;51.10
71672;DHT22;62112;45.638;11.714;2022-08-21T05:02:13;27.70;51.10
71672;DHT22;62112;45.638;11.714;2022-08-21T05:04:45;27.70;51.00
71672;DHT22;62112;45.638;11.714;2022-08-21T05:07:16;27.70;51.00
71672;DHT22;62112;45.638;11.714;2022-08-21T05:09:43;27.80;50.90
71672;DHT22;62112;45.638;11.714;2022-08-21T05:12:09;27.80;50.90
71672;DHT22;62112;45.638;11.714;2022-08-21T05:14:35;27.80;50.90
71672;DHT22;62112;45.638;11.714;2022-08-21T05:17:01;27.80;50.80
71672;DHT22;62112;45.638;11.714;2022-08-21T05:19:27;27.90;50.80
71672;DHT22;62112;45.638;11.714;2022-08-21T05:21:53;27.90;50.70
71672;DHT22;62112;45.638;11.714;2022-08-21T05:24:19;27.90;50.60
71672;DHT22;62112;45.638;11.714;2022-08-21T05:26:45;27.90;50.60
71672;DHT22;62112;45.638;11.714;2022-08-21T05:29:12;28.00;49.90
71672;DHT22;62112;45.638;11.714;2022-08-21T05:31:38;28.00;50.40
71672;DHT22;62112;45.638;11.714;2022-08-21T05:34:06;28.10;50.00
71672;DHT22;62112;45.638;11.714;2022-08-21T05:36:32;28.00;50.00
71672;DHT22;62112;45.638;11.714;2022-08-21T05:38:58;28.10;50.30
71672;DHT22;62112;45.638;11.714;2022-08-21T05:41:23;28.10;50.20
71672;DHT22;62112;45.638;11.714;2022-08-21T05:43:49;28.10;50.20
71672;DHT22;62112;45.638;11.714;2022-08-21T05:46:15;28.20;50.20
71672;DHT22;62112;45.638;11.714;2022-08-21T05:48:41;28.20;49.70
71672;DHT22;62112;45.638;11.714;2022-08-21T05:51:13;28.20;49.80
71672;DHT22;62112;45.638;11.714;2022-08-21T05:53:39;28.20;49.90
71672;DHT22;62112;45.638;11.714;2022-08-21T05:56:08;28.20;49.80
71672;DHT22;62112;45.638;11.714;2022-08-21T05:58:34;28.20;49.70
71672;DHT22;62112;45.638;11.714;2022-08-21T06:01:02;28.30;49.30
71672;DHT22;62112;45.638;11.714;2022-08-21T06:03:31;28.30;49.70
71672;DHT22;62112;45.638;11.714;2022-08-21T06:05:57;28.30;49.60
71672;DHT22;62112;45.638;11.714;2022-08-21T06:08:23;28.40;49.40
71672;DHT22;62112;45.638;11.714;2022-08-21T06:10:50;28.40;49.40
71672;DHT22;62112;45.638;11.714;2022-08-21T06:13:18;28.40;49.40
71672;DHT22;62112;45.638;11.714;2022-08-21T06:15:44;28.30;49.30
71672;DHT22;62112;45.638;11.714;2022-08-21T06:18:11;28.40;49.10
71672;DHT22;62112;45.638;11.714;2022-08-21T06:20:38;28.50;49.30
71672;DHT22;62112;45.638;11.714;2022-08-21T06:23:04;28.50;49.30
71672;DHT22;62112;45.638;11.714;2022-08-21T06:25:30;28.50;49.00
71672;DHT22;62112;45.638;11.714;2022-08-21T06:28:04;28.50;48.80
71672;DHT22;62112;45.638;11.714;2022-08-21T06:30:31;28.50;48.80
71672;DHT22;62112;45.638;11.714;2022-08-21T06:32:57;28.60;48.40
71672;DHT22;62112;45.638;11.714;2022-08-21T06:35:23;28.60;48.60
71672;DHT22;62112;45.638;11.714;2022-08-21T06:37:50;28.60;48.50
71672;DHT22;62112;45.638;11.714;2022-08-21T06:40:16;28.60;49.10
71672;DHT22;62112;45.638;11.714;2022-08-21T06:42:42;28.70;48.40
71672;DHT22;62112;45.638;11.714;2022-08-21T06:45:09;28.70;48.70
71672;DHT22;62112;45.638;11.714;2022-08-21T06:47:36;28.70;48.50
71672;DHT22;62112;45.638;11.714;2022-08-21T06:50:02;28.80;48.30
71672;DHT22;62112;45.638;11.714;2022-08-21T06:52:29;28.60;48.30
71672;DHT22;62112;45.638;11.714;2022-08-21T06:54:56;28.80;48.40
71672;DHT22;62112;45.638;11.714;2022-08-21T06:57:22;28.70;47.50
71672;DHT22;62112;45.638;11.714;2022-08-21T06:59:47;28.80;46.70
71672;DHT22;62112;45.638;11.714;2022-08-21T07:02:13;28.70;46.40
71672;DHT22;62112;45.638;11.714;2022-08-21T07:04:39;28.70;46.10
71672;DHT22;62112;45.638;11.714;2022-08-21T07:07:05;28.70;45.70
71672;DHT22;62112;45.638;11.714;2022-08-21T07:09:31;28.60;46.00
71672;DHT22;62112;45.638;11.714;2022-08-21T07:11:57;28.60;46.00
71672;DHT22;62112;45.638;11.714;2022-08-21T07:14:24;28.60;45.90
71672;DHT22;62112;45.638;11.714;2022-08-21T07:16:50;28.60;45.80
71672;DHT22;62112;45.638;11.714;2022-08-21T07:19:17;28.70;46.30
71672;DHT22;62112;45.638;11.714;2022-08-21T07:21:44;28.60;45.70
71672;DHT22;62112;45.638;11.714;2022-08-21T07:24:12;28.60;45.80
71672;DHT22;62112;45.638;11.714;2022-08-21T07:26:38;28.60;45.80
71672;DHT22;62112;45.638;11.714;2022-08-21T07:29:05;28.70;45.40
71672;DHT22;62112;45.638;11.714;2022-08-21T07:31:32;28.60;45.80
71672;DHT22;62112;45.638;11.714;2022-08-21T07:34:04;28.60;45.50
71672;DHT22;62112;45.638;11.714;2022-08-21T07:36:37;28.70;45.30
71672;DHT22;62112;45.638;11.714;2022-08-21T07:39:04;28.60;45.10
71672;DHT22;62112;45.638;11.714;2022-08-21T07:41:30;28.70;45.40
71672;DHT22;62112;45.638;11.714;2022-08-21T07:43:58;28.60;45.10
71672;DHT22;62112;45.638;11.714;2022-08-21T07:46:25;28.60;45.30
71672;DHT22;62112;45.638;11.714;2022-08-21T07:48:51;28.70;45.30
71672;DHT22;62112;45.638;11.714;2022-08-21T07:51:19;28.60;45.40
71672;DHT22;62112;45.638;11.714;2022-08-21T07:53:50;28.60;45.10
71672;DHT22;62112;45.638;11.714;2022-08-21T07:56:17;28.70;45.00
71672;DHT22;62112;45.638;11.714;2022-08-21T07:58:43;28.70;45.20
71672;DHT22;62112;45.638;11.714;2022-08-21T08:01:09;28.70;45.10
71672;DHT22;62112;45.638;11.714;2022-08-21T08:03:36;28.70;45.20
71672;DHT22;62112;45.638;11.714;2022-08-21T08:06:02;28.70;44.70
71672;DHT22;62112;45.638;11.714;2022-08-21T08:08:30;28.70;44.60
71672;DHT22;62112;45.638;11.714;2022-08-21T08:10:57;28.70;44.60
71672;DHT22;62112;45.638;11.714;2022-08-21T08:13:23;28.60;44.80
71672;DHT22;62112;45.638;11.714;2022-08-21T08:15:49;28.70;44.70
71672;DHT22;62112;45.638;11.714;2022-08-21T08:18:16;28.70;44.80
71672;DHT22;62112;45.638;11.714;2022-08-21T08:20:42;28.70;44.40
71672;DHT22;62112;45.638;11.714;2022-08-21T08:23:11;28.70;45.00
71672;DHT22;62112;45.638;11.714;2022-08-21T08:25:37;28.70;44.80
71672;DHT22;62112;45.638;11.714;2022-08-21T08:28:04;28.80;44.80
71672;DHT22;62112;45.638;11.714;2022-08-21T08:30:30;28.60;45.00
71672;DHT22;62112;45.638;11.714;2022-08-21T08:32:56;28.80;45.00
71672;DHT22;62112;45.638;11.714;2022-08-21T08:35:22;28.70;45.20
71672;DHT22;62112;45.638;11.714;2022-08-21T08:37:48;28.70;45.30
71672;DHT22;62112;45.638;11.714;2022-08-21T08:42:54;28.70;45.40
71672;DHT22;62112;45.638;11.714;2022-08-21T08:45:22;28.70;44.70
71672;DHT22;62112;45.638;11.714;2022-08-21T08:48:02;28.70;44.90
71672;DHT22;62112;45.638;11.714;2022-08-21T08:50:44;28.80;44.50
71672;DHT22;62112;45.638;11.714;2022-08-21T08:53:19;28.70;44.40
71672;DHT22;62112;45.638;11.714;2022-08-21T08:55:48;28.70;44.50
71672;DHT22;62112;45.638;11.714;2022-08-21T08:58:30;28.80;44.70
71672;DHT22;62112;45.638;11.714;2022-08-21T09:00:56;28.70;44.50
71672;DHT22;62112;45.638;11.714;2022-08-21T09:03:24;28.70;44.70
71672;DHT22;62112;45.638;11.714;2022-08-21T09:16:46;28.70;44.50
71672;DHT22;62112;45.638;11.714;2022-08-21T09:25:28;28.70;44.30
71672;DHT22;62112;45.638;11.714;2022-08-21T09:27:56;28.70;44.40
71672;DHT22;62112;45.638;11.714;2022-08-21T09:30:32;28.70;44.30
71672;DHT22;62112;45.638;11.714;2022-08-21T09:32:58;28.70;44.60
71672;DHT22;62112;45.638;11.714;2022-08-21T09:35:25;28.70;44.40
71672;DHT22;62112;45.638;11.714;2022-08-21T09:42:57;28.70;44.20
71672;DHT22;62112;45.638;11.714;2022-08-21T09:45:24;28.60;44.20
71672;DHT22;62112;45.638;11.714;2022-08-21T09:47:50;28.60;44.10
71672;DHT22;62112;45.638;11.714;2022-08-21T09:50:20;28.60;44.30
71672;DHT22;62112;45.638;11.714;2022-08-21T09:52:51;28.60;44.50
71672;DHT22;62112;45.638;11.714;2022-08-21T09:55:33;28.60;44.30
71672;DHT22;62112;45.638;11.714;2022-08-21T09:58:20;28.60;44.40
71672;DHT22;62112;45.638;11.714;2022-08-21T10:00:57;28.60;45.80
71672;DHT22;62112;45.638;11.714;2022-08-21T10:03:23;28.60;45.70
71672;DHT22;62112;45.638;11.714;2022-08-21T10:06:19;28.60;46.00
71672;DHT22;62112;45.638;11.714;2022-08-21T10:08:46;28.60;45.60
71672;DHT22;62112;45.638;11.714;2022-08-21T10:11:15;28.60;45.40
71672;DHT22;62112;45.638;11.714;2022-08-21T10:14:05;28.60;46.30
71672;DHT22;62112;45.638;11.714;2022-08-21T10:19:30;28.60;46.00
71672;DHT22;62112;45.638;11.714;2022-08-21T10:25:16;28.50;46.30
71672;DHT22;62112;45.638;11.714;2022-08-21T10:28:13;28.60;45.50
71672;DHT22;62112;45.638;11.714;2022-08-21T10:30:52;28.60;45.80
71672;DHT22;62112;45.638;11.714;2022-08-21T10:33:28;28.50;46.20
71672;DHT22;62112;45.638;11.714;2022-08-21T10:42:43;28.50;46.30
71672;DHT22;62112;45.638;11.714;2022-08-21T10:44:49;28.50;46.20
71672;DHT22;62112;45.638;11.714;2022-08-21T10:48:05;28.50;46.40
71672;DHT22;62112;45.638;11.714;2022-08-21T10:53:05;28.50;46.20
71672;DHT22;62112;45.638;11.714;2022-08-21T10:55:43;28.50;46.10
71672;DHT22;62112;45.638;11.714;2022-08-21T10:58:28;28.50;45.80
71672;DHT22;62112;45.638;11.714;2022-08-21T11:01:12;28.50;46.20
71672;DHT22;62112;45.638;11.714;2022-08-21T11:03:50;28.50;46.20
71672;DHT22;62112;45.638;11.714;2022-08-21T11:06:25;28.50;45.90
71672;DHT22;62112;45.638;11.714;2022-08-21T11:08:57;28.50;45.70
71672;DHT22;62112;45.638;11.714;2022-08-21T11:11:33;28.40;45.90
71672;DHT22;62112;45.638;11.714;2022-08-21T11:17:02;28.50;45.80
71672;DHT22;62112;45.638;11.714;2022-08-21T11:19:34;28.50;46.00
71672;DHT22;62112;45.638;11.714;2022-08-21T11:25:20;28.50;45.90
71672;DHT22;62112;45.638;11.714;2022-08-21T11:28:08;28.50;45.80
71672;DHT22;62112;45.638;11.714;2022-08-21T11:31:23;28.40;45.60
71672;DHT22;62112;45.638;11.714;2022-08-21T11:39:32;28.40;45.60
71672;DHT22;62112;45.638;11.714;2022-08-21T11:47:35;28.40;45.40
71672;DHT22;62112;45.638;11.714;2022-08-21T11:50:12;28.40;45.00
71672;DHT22;62112;45.638;11.714;2022-08-21T11:52:49;28.40;44.30
71672;DHT22;62112;45.638;11.714;2022-08-21T11:55:49;28.30;44.50
71672;DHT22;62112;45.638;11.714;2022-08-21T11:58:20;28.40;44.10
71672;DHT22;62112;45.638;11.714;2022-08-21T12:00:58;28.30;44.00
71672;DHT22;62112;45.638;11.714;2022-08-21T12:03:33;28.20;44.10
71672;DHT22;62112;45.638;11.714;2022-08-21T12:06:07;28.30;44.80
71672;DHT22;62112;45.638;11.714;2022-08-21T12:08:36;28.30;45.30
71672;DHT22;62112;45.638;11.714;2022-08-21T12:16:37;28.50;45.40
71672;DHT22;62112;45.638;11.714;2022-08-21T12:19:14;28.60;44.90
71672;DHT22;62112;45.638;11.714;2022-08-21T12:21:53;28.70;45.00
71672;DHT22;62112;45.638;11.714;2022-08-21T12:24:39;28.80;45.10
71672;DHT22;62112;45.638;11.714;2022-08-21T12:27:28;28.80;44.90
71672;DHT22;62112;45.638;11.714;2022-08-21T12:30:01;28.80;44.90
71672;DHT22;62112;45.638;11.714;2022-08-21T12:32:30;29.00;44.70
71672;DHT22;62112;45.638;11.714;2022-08-21T12:35:10;29.00;44.50
71672;DHT22;62112;45.638;11.714;2022-08-21T12:37:48;29.10;44.30
71672;DHT22;62112;45.638;11.714;2022-08-21T12:42:48;29.20;42.90
71672;DHT22;62112;45.638;11.714;2022-08-21T12:45:37;29.30;42.20
71672;DHT22;62112;45.638;11.714;2022-08-21T12:50:51;29.20;41.70
71672;DHT22;62112;45.638;11.714;2022-08-21T12:55:54;29.20;40.40
71672;DHT22;62112;45.638;11.714;2022-08-21T12:58:25;29.20;40.10
71672;DHT22;62112;45.638;11.714;2022-08-21T13:00:54;29.20;39.80
71672;DHT22;62112;45.638;11.714;2022-08-21T13:03:22;29.20;39.70
71672;DHT22;62112;45.638;11.714;2022-08-21T13:05:49;29.20;39.60
71672;DHT22;62112;45.638;11.714;2022-08-21T13:08:21;29.20;39.20
71672;DHT22;62112;45.638;11.714;2022-08-21T13:10:58;29.20;38.70
71672;DHT22;62112;45.638;11.714;2022-08-21T13:13:26;29.20;38.60
71672;DHT22;62112;45.638;11.714;2022-08-21T13:15:58;29.20;38.90
71672;DHT22;62112;45.638;11.714;2022-08-21T13:18:27;29.30;38.30
71672;DHT22;62112;45.638;11.714;2022-08-21T13:21:07;29.30;38.30
71672;DHT22;62112;45.638;11.714;2022-08-21T13:23:34;29.30;38.20
71672;DHT22;62112;45.638;11.714;2022-08-21T13:26:00;29.20;38.30
71672;DHT22;62112;45.638;11.714;2022-08-21T13:28:35;29.30;37.90
71672;DHT22;62112;45.638;11.714;2022-08-21T13:31:07;29.30;37.60
71672;DHT22;62112;45.638;11.714;2022-08-21T13:33:37;29.30;37.50
71672;DHT22;62112;45.638;11.714;2022-08-21T13:36:25;29.30;37.60
71672;DHT22;62112;45.638;11.714;2022-08-21T13:38:52;29.30;37.40
71672;DHT22;62112;45.638;11.714;2022-08-21T13:41:24;29.40;37.40
71672;DHT22;62112;45.638;11.714;2022-08-21T13:44:30;29.30;37.10
71672;DHT22;62112;45.638;11.714;2022-08-21T13:46:59;29.40;37.20
71672;DHT22;62112;45.638;11.714;2022-08-21T13:49:38;29.40;37.50
71672;DHT22;62112;45.638;11.714;2022-08-21T13:52:18;29.40;37.50
71672;DHT22;62112;45.638;11.714;2022-08-21T13:54:58;29.30;37.30
71672;DHT22;62112;45.638;11.714;2022-08-21T13:57:30;29.30;37.40
71672;DHT22;62112;45.638;11.714;2022-08-21T14:00:19;29.30;37.20
71672;DHT22;62112;45.638;11.714;2022-08-21T14:02:51;29.30;37.60
71672;DHT22;62112;45.638;11.714;2022-08-21T14:05:26;29.20;37.40
71672;DHT22;62112;45.638;11.714;2022-08-21T14:08:05;29.20;37.40
71672;DHT22;62112;45.638;11.714;2022-08-21T14:10:35;29.10;37.60
71672;DHT22;62112;45.638;11.714;2022-08-21T14:13:05;29.10;38.30
71672;DHT22;62112;45.638;11.714;2022-08-21T14:15:33;29.00;38.40
71672;DHT22;62112;45.638;11.714;2022-08-21T14:18:14;29.00;38.40
71672;DHT22;62112;45.638;11.714;2022-08-21T14:20:42;29.00;38.50
71672;DHT22;62112;45.638;11.714;2022-08-21T14:23:07;28.90;38.50
71672;DHT22;62112;45.638;11.714;2022-08-21T14:25:42;28.90;38.50
71672;DHT22;62112;45.638;11.714;2022-08-21T14:30:47;28.80;38.70
71672;DHT22;62112;45.638;11.714;2022-08-21T14:33:21;28.80;38.70
71672;DHT22;62112;45.638;11.714;2022-08-21T14:35:49;28.70;38.80
71672;DHT22;62112;45.638;11.714;2022-08-21T14:38:19;28.70;38.90
71672;DHT22;62112;45.638;11.714;2022-08-21T14:40:48;28.60;39.00
71672;DHT22;62112;45.638;11.714;2022-08-21T14:43:15;28.60;38.70
71672;DHT22;62112;45.638;11.714;2022-08-21T14:45:41;28.60;39.20
71672;DHT22;62112;45.638;11.714;2022-08-21T14:48:09;28.50;39.40
71672;DHT22;62112;45.638;11.714;2022-08-21T14:50:35;28.50;39.10
71672;DHT22;62112;45.638;11.714;2022-08-21T14:53:01;28.50;39.30
71672;DHT22;62112;45.638;11.714;2022-08-21T14:55:28;28.40;39.40
71672;DHT22;62112;45.638;11.714;2022-08-21T14:57:55;28.40;39.10
71672;DHT22;62112;45.638;11.714;2022-08-21T15:00:24;28.40;39.10
71672;DHT22;62112;45.638;11.714;2022-08-21T15:02:51;28.40;39.00
71672;DHT22;62112;45.638;11.714;2022-08-21T15:05:17;28.30;39.10
71672;DHT22;62112;45.638;11.714;2022-08-21T15:07:44;28.30;39.40
71672;DHT22;62112;45.638;11.714;2022-08-21T15:10:12;28.40;40.10
71672;DHT22;62112;45.638;11.714;2022-08-21T15:12:41;28.30;39.60
71672;DHT22;62112;45.638;11.714;2022-08-21T15:15:08;28.30;40.10
71672;DHT22;62112;45.638;11.714;2022-08-21T15:17:35;28.40;40.20
71672;DHT22;62112;45.638;11.714;2022-08-21T15:20:02;28.30;39.80
71672;DHT22;62112;45.638;11.714;2022-08-21T15:22:29;28.30;39.70
71672;DHT22;62112;45.638;11.714;2022-08-21T15:24:55;28.30;39.50
71672;DHT22;62112;45.638;11.714;2022-08-21T15:27:21;28.30;39.70
71672;DHT22;62112;45.638;11.714;2022-08-21T15:29:47;28.30;39.20
71672;DHT22;62112;45.638;11.714;2022-08-21T15:34:41;28.20;39.50
71672;DHT22;62112;45.638;11.714;2022-08-21T15:37:07;28.30;39.90
71672;DHT22;62112;45.638;11.714;2022-08-21T15:39:34;28.20;39.90
71672;DHT22;62112;45.638;11.714;2022-08-21T15:42:00;28.20;39.70
71672;DHT22;62112;45.638;11.714;2022-08-21T15:44:27;28.20;38.90
71672;DHT22;62112;45.638;11.714;2022-08-21T15:46:53;28.20;39.30
71672;DHT22;62112;45.638;11.714;2022-08-21T15:49:24;28.20;39.60
71672;DHT22;62112;45.638;11.714;2022-08-21T15:51:56;28.10;40.70
71672;DHT22;62112;45.638;11.714;2022-08-21T15:54:25;28.30;41.10
71672;DHT22;62112;45.638;11.714;2022-08-21T15:56:52;28.20;41.20
71672;DHT22;62112;45.638;11.714;2022-08-21T15:59:21;28.30;41.80
71672;DHT22;62112;45.638;11.714;2022-08-21T16:01:49;28.30;41.40
71672;DHT22;62112;45.638;11.714;2022-08-21T16:04:23;28.30;41.50
71672;DHT22;62112;45.638;11.714;2022-08-21T16:06:50;28.30;42.00
71672;DHT22;62112;45.638;11.714;2022-08-21T16:09:16;28.30;41.60
71672;DHT22;62112;45.638;11.714;2022-08-21T16:11:43;28.40;41.80
71672;DHT22;62112;45.638;11.714;2022-08-21T16:14:11;28.30;42.10
71672;DHT22;62112;45.638;11.714;2022-08-21T16:16:38;28.30;41.70
71672;DHT22;62112;45.638;11.714;2022-08-21T16:19:04;28.30;42.10
71672;DHT22;62112;45.638;11.714;2022-08-21T16:21:32;28.40;42.60
71672;DHT22;62112;45.638;11.714;2022-08-21T16:23:58;28.30;42.50
71672;DHT22;62112;45.638;11.714;2022-08-21T16:26:24;28.40;42.40
71672;DHT22;62112;45.638;11.714;2022-08-21T16:28:54;28.40;42.60
71672;DHT22;62112;45.638;11.714;2022-08-21T16:31:23;28.40;42.10
71672;DHT22;62112;45.638;11.714;2022-08-21T16:33:52;28.50;42.50
71672;DHT22;62112;45.638;11.714;2022-08-21T16:36:19;28.40;42.60
71672;DHT22;62112;45.638;11.714;2022-08-21T16:38:45;28.50;42.80
71672;DHT22;62112;45.638;11.714;2022-08-21T16:41:15;28.40;43.10
71672;DHT22;62112;45.638;11.714;2022-08-21T16:43:42;28.40;43.10
71672;DHT22;62112;45.638;11.714;2022-08-21T16:46:10;28.50;42.90
71672;DHT22;62112;45.638;11.714;2022-08-21T16:48:37;28.40;43.30